Maersk Essex — V7WJ2 — position and weather

sailwx.info

Track history (hours):
 
Tides and Currents Weather Stations Pressure Air Temp Water Temp Dewpoint Dewpoint Depression Visibility Wind Speed Wind Dir Waves Ship Positions

Maersk Essex

Last reported at 2017-Nov-19 15:30 UTC. Time now 2017-Nov-19 16:00 UTC.
Position N 22°35' E 114°17'.

Length 366 m; draft 11.7 m.

Type: Ship (hazmat cat A). MMSI: 538004304.

Date/timePositionNaut miles runAvg speedWind from/ knotsBaromVisibWave heightAir tempDewpointWater temp
2017-Nov-19 15:30N 22°35' E 114°17'0 0.0
2017-Nov-19 15:00N 22°35' E 114°17'0 0.0
2017-Nov-19 14:30N 22°35' E 114°17'0 0.0
2017-Nov-19 14:00N 22°35' E 114°17'0 0.0
2017-Nov-19 13:30N 22°35' E 114°17'0 0.0
2017-Nov-19 13:00N 22°35' E 114°17'0 0.0
2017-Nov-19 12:28N 22°35' E 114°17'0 0.0
2017-Nov-19 12:00N 22°35' E 114°17'0 0.0
2017-Nov-19 11:30N 22°35' E 114°17'0 0.0
2017-Nov-19 11:00N 22°35' E 114°17'0 0.0
2017-Nov-19 10:30N 22°35' E 114°17'0 0.0
2017-Nov-19 10:00N 22°35' E 114°17'0 0.0
2017-Nov-19 09:30N 22°35' E 114°17'0 0.0
2017-Nov-19 09:00N 22°35' E 114°17'0 0.0
2017-Nov-19 08:30N 22°35' E 114°17'0 0.0
2017-Nov-19 08:01N 22°35' E 114°17'0 0.0
2017-Nov-19 07:30N 22°35' E 114°17'0 0.0
2017-Nov-19 07:00N 22°35' E 114°17'0 0.0
2017-Nov-19 06:30N 22°35' E 114°17'0 0.0
2017-Nov-19 06:00N 22°35' E 114°17'0 0.0
2017-Nov-19 05:30N 22°35' E 114°17'0 0.0
2017-Nov-19 05:00N 22°35' E 114°17'0 0.0
2017-Nov-19 04:30N 22°35' E 114°17'0 0.0
2017-Nov-19 04:00N 22°35' E 114°17'0 0.0
2017-Nov-19 03:30N 22°35' E 114°17'0 0.0
2017-Nov-19 03:00N 22°35' E 114°17'0 0.0
2017-Nov-19 02:30N 22°35' E 114°17'0 0.0
2017-Nov-19 02:00N 22°35' E 114°17'0 0.0
2017-Nov-19 01:30N 22°35' E 114°17'0 0.0
2017-Nov-19 01:00N 22°35' E 114°17'0 0.0
2017-Nov-19 00:27N 22°35' E 114°17'0 0.0
2017-Nov-19 00:00N 22°35' E 114°17'0 0.0
2017-Nov-18 23:30N 22°35' E 114°17'0 0.0
2017-Nov-18 23:00N 22°35' E 114°17'0 0.0
2017-Nov-18 22:30N 22°35' E 114°17'1 1.2
2017-Nov-18 22:00N 22°34' E 114°17'4 8.8
2017-Nov-18 21:30N 22°33' E 114°22'612.4
2017-Nov-18 21:00N 22°29' E 114°27'5 9.9
2017-Nov-18 20:30N 22°25' E 114°29'510.6
2017-Nov-18 20:00N 22°21' E 114°33'0 0.2
2017-Nov-18 19:30N 22°21' E 114°33'0 0.1
2017-Nov-18 19:00N 22°21' E 114°33'0 0.0
2017-Nov-18 18:30N 22°21' E 114°33'0 0.0
2017-Nov-18 18:00N 22°21' E 114°33'0 0.1
2017-Nov-18 17:27N 22°21' E 114°33'0 0.1
2017-Nov-18 17:00N 22°21' E 114°33'0 0.2
2017-Nov-18 16:30N 22°21' E 114°33'0 0.2
2017-Nov-18 15:57N 22°21' E 114°33'2 4.7
2017-Nov-18 15:30N 22°19' E 114°32'611.8
2017-Nov-18 15:00N 22°14' E 114°29'815.1
2017-Nov-18 14:31N 22°08' E 114°24'714.0
2017-Nov-18 14:00N 22°06' E 114°17'7 8.4
2017-Nov-18 13:07N 22°12' E 114°11'111.6
2017-Nov-18 13:00N 22°13' E 114°10'7 0.4
2017-Nov-17 18:30N 22°18' E 114°06'3 6.9
2017-Nov-17 18:00N 22°15' E 114°07'510.2
2017-Nov-17 17:30N 22°12' E 114°11'5 9.8
2017-Nov-17 17:00N 22°08' E 114°15'3 5.9
2017-Nov-17 16:30N 22°07' E 114°12'510.9
2017-Nov-17 16:00N 22°07' E 114°06'612.2
2017-Nov-17 15:30N 22°07' E 113°59'4 6.6
2017-Nov-17 14:53N 22°06' E 113°55'0 0.0
2017-Nov-17 11:23N 22°06' E 113°55'0 0.1
2017-Nov-17 10:21N 22°06' E 113°55'3 8.2
2017-Nov-17 10:00N 22°06' E 113°52'611.3
2017-Nov-17 09:30N 22°12' E 113°49'816.3
2017-Nov-17 09:00N 22°20' E 113°48'714.6
2017-Nov-17 08:30N 22°26' E 113°45'714.9
2017-Nov-17 08:00N 22°34' E 113°43'510.3
2017-Nov-17 07:30N 22°39' E 113°41'0 0.5
2017-Nov-17 06:55N 22°38' E 113°41'0 0.0
2017-Nov-17 06:25N 22°38' E 113°41'0 0.0
2017-Nov-17 05:46N 22°38' E 113°41'0 0.0
2017-Nov-17 05:22N 22°38' E 113°41'0 0.0
2017-Nov-17 04:58N 22°38' E 113°41'0 0.0
2017-Nov-17 04:19N 22°38' E 113°41'0 0.0
2017-Nov-17 03:49N 22°38' E 113°41'0 0.0
2017-Nov-17 03:19N 22°38' E 113°41'0 0.0
2017-Nov-17 02:22N 22°38' E 113°41'0 0.0
2017-Nov-17 01:55N 22°38' E 113°41'0 0.0
2017-Nov-16 23:01N 22°38' E 113°41'0 0.0
2017-Nov-16 22:34N 22°38' E 113°41'0 0.0
2017-Nov-16 22:25N 22°38' E 113°41'0 0.0
2017-Nov-16 21:58N 22°38' E 113°41'0 0.0
2017-Nov-16 21:28N 22°38' E 113°41'0 0.0
2017-Nov-16 20:55N 22°38' E 113°41'0 0.0
2017-Nov-16 20:25N 22°38' E 113°41'0 0.0
2017-Nov-16 19:10N 22°38' E 113°41'0 0.0
2017-Nov-16 18:13N 22°38' E 113°41'0 0.0
2017-Nov-16 17:58N 22°38' E 113°41'0 0.0
2017-Nov-16 15:27N 22°38' E 113°41'1 1.3
2017-Nov-16 15:00N 22°38' E 113°41'510.2
2017-Nov-16 14:30N 22°33' E 113°43'612.2
2017-Nov-16 14:00N 22°28' E 113°45'815.0
2017-Nov-16 13:29N 22°20' E 113°48'815.8
2017-Nov-16 13:00N 22°13' E 113°49'813.7
2017-Nov-16 12:27N 22°05' E 113°51'613.1
2017-Nov-16 12:01N 21°59' E 113°51'814.7
2017-Nov-16 11:29N 21°52' E 113°50'  
2017-Nov-13 00:15N 01°15' E 104°03'416.5
2017-Nov-12 23:59N 01°14' E 103°59'613.2
2017-Nov-12 23:30N 01°12' E 103°53'4 7.7
2017-Nov-12 23:00N 01°12' E 103°49'4 8.2
2017-Nov-12 22:30N 01°15' E 103°46'2 3.9
2017-Nov-12 21:57N 01°17' E 103°45'0 0.2
2017-Nov-12 21:30N 01°17' E 103°45'0 0.0
2017-Nov-12 21:00N 01°17' E 103°45'0 0.0
2017-Nov-12 20:30N 01°17' E 103°45'0 0.0
2017-Nov-12 19:57N 01°17' E 103°45'0 0.0
2017-Nov-12 19:30N 01°17' E 103°45'0 0.0
2017-Nov-12 18:57N 01°17' E 103°45'0 0.0
2017-Nov-12 18:30N 01°17' E 103°45'0 0.0
2017-Nov-12 17:54N 01°17' E 103°45'0 0.0
2017-Nov-12 17:30N 01°17' E 103°45'0 0.0
2017-Nov-12 17:00N 01°17' E 103°45'0 0.0
2017-Nov-12 16:30N 01°17' E 103°45'0 0.0
2017-Nov-12 15:57N 01°17' E 103°45'0 0.0
2017-Nov-12 15:30N 01°17' E 103°45'0 0.0
2017-Nov-12 15:00N 01°17' E 103°45'0 0.0
2017-Nov-12 14:27N 01°17' E 103°45'0 0.0
2017-Nov-12 13:48N 01°17' E 103°45'0 0.0
2017-Nov-12 13:24N 01°17' E 103°45'0 0.0
2017-Nov-12 13:00N 01°17' E 103°45'0 0.0
2017-Nov-12 12:30N 01°17' E 103°45'0 0.0
2017-Nov-12 12:00N 01°17' E 103°45'0 0.0
2017-Nov-12 11:30N 01°17' E 103°45'0 0.0
2017-Nov-12 10:54N 01°17' E 103°45'0 0.0
2017-Nov-12 10:30N 01°17' E 103°45'0 0.0
2017-Nov-12 10:00N 01°17' E 103°45'0 0.0
2017-Nov-12 09:30N 01°17' E 103°45'0 0.0
2017-Nov-12 08:57N 01°17' E 103°45'0 0.0
2017-Nov-12 08:30N 01°17' E 103°45'0 0.0
2017-Nov-12 07:57N 01°17' E 103°45'0 0.0
2017-Nov-12 07:30N 01°17' E 103°45'0 0.0
2017-Nov-12 06:57N 01°17' E 103°45'0 0.0
2017-Nov-12 06:24N 01°17' E 103°45'0 0.0
2017-Nov-12 06:00N 01°17' E 103°45'0 0.0
2017-Nov-12 05:27N 01°17' E 103°45'0 0.0
2017-Nov-12 04:57N 01°17' E 103°45'0 0.0
2017-Nov-12 04:30N 01°17' E 103°45'0 0.0
2017-Nov-12 03:57N 01°17' E 103°45'0 0.0
2017-Nov-12 03:30N 01°17' E 103°45'0 0.0
2017-Nov-12 02:57N 01°17' E 103°45'0 0.0
2017-Nov-12 02:30N 01°17' E 103°45'0 0.0
2017-Nov-12 02:00N 01°17' E 103°45'0 0.0
2017-Nov-12 01:30N 01°17' E 103°45'0 0.0
2017-Nov-12 01:00N 01°17' E 103°45'0 0.0
2017-Nov-12 00:30N 01°17' E 103°45'0 0.0
2017-Nov-11 23:57N 01°17' E 103°45'0 0.0
2017-Nov-11 23:30N 01°17' E 103°45'0 0.0
2017-Nov-11 22:57N 01°17' E 103°45'0 0.0
2017-Nov-11 22:30N 01°17' E 103°45'0 0.0
2017-Nov-11 21:57N 01°17' E 103°45'0 0.0
2017-Nov-11 21:30N 01°17' E 103°45'0 0.0
2017-Nov-11 21:00N 01°17' E 103°45'0 0.0
2017-Nov-11 20:30N 01°17' E 103°45'0 0.0
2017-Nov-11 20:00N 01°17' E 103°45'0 0.0
2017-Nov-11 19:30N 01°17' E 103°45'0 0.0
2017-Nov-11 19:00N 01°17' E 103°45'0 0.0
2017-Nov-11 18:30N 01°17' E 103°45'0 0.0
2017-Nov-11 18:00N 01°17' E 103°45'0 0.0
2017-Nov-11 17:30N 01°17' E 103°45'0 0.0
2017-Nov-11 17:00N 01°17' E 103°45'0 0.0
2017-Nov-11 16:30N 01°17' E 103°45'0 0.0
2017-Nov-11 16:00N 01°17' E 103°45'0 0.0
2017-Nov-11 15:30N 01°17' E 103°45'0 0.0
2017-Nov-11 15:00N 01°17' E 103°45'0 0.0
2017-Nov-11 14:30N 01°17' E 103°45'0 0.0
2017-Nov-11 14:00N 01°17' E 103°45'0 0.2
2017-Nov-11 13:30N 01°17' E 103°45'1 1.5
2017-Nov-11 13:01N 01°16' E 103°46'1 1.7
2017-Nov-11 12:30N 01°16' E 103°46'1 1.5
2017-Nov-11 12:01N 01°15' E 103°46'4 8.8
2017-Nov-11 11:30N 01°13' E 103°42'5 9.5
2017-Nov-11 11:01N 01°12' E 103°37'4 8.1
2017-Nov-11 10:30N 01°11' E 103°33'5 9.2
2017-Nov-11 10:00N 01°10' E 103°29'612.2
2017-Nov-11 09:30N 01°13' E 103°23'712.7
2017-Nov-11 08:59N 01°17' E 103°18'  
Track history (hours):
 
Tides and Currents Weather Stations Pressure Air Temp Water Temp Dewpoint Dewpoint Depression Visibility Wind Speed Wind Dir Waves Ship Positions

Maersk Essex

Last reported at 2017-Nov-19 15:30 UTC. Time now 2017-Nov-19 16:00 UTC.
Position N 22°35' E 114°17'.

Length 366 m; draft 11.7 m.

Type: Ship (hazmat cat A). MMSI: 538004304.

Date/timePositionNaut miles runAvg speedWind from/ knotsBaromVisibWave heightAir tempDewpointWater temp
2017-Nov-19 15:30N 22°35' E 114°17'0 0.0
2017-Nov-19 15:00N 22°35' E 114°17'0 0.0
2017-Nov-19 14:30N 22°35' E 114°17'0 0.0
2017-Nov-19 14:00N 22°35' E 114°17'0 0.0
2017-Nov-19 13:30N 22°35' E 114°17'0 0.0
2017-Nov-19 13:00N 22°35' E 114°17'0 0.0
2017-Nov-19 12:28N 22°35' E 114°17'0 0.0
2017-Nov-19 12:00N 22°35' E 114°17'0 0.0
2017-Nov-19 11:30N 22°35' E 114°17'0 0.0
2017-Nov-19 11:00N 22°35' E 114°17'0 0.0
2017-Nov-19 10:30N 22°35' E 114°17'0 0.0
2017-Nov-19 10:00N 22°35' E 114°17'0 0.0
2017-Nov-19 09:30N 22°35' E 114°17'0 0.0
2017-Nov-19 09:00N 22°35' E 114°17'0 0.0
2017-Nov-19 08:30N 22°35' E 114°17'0 0.0
2017-Nov-19 08:01N 22°35' E 114°17'0 0.0
2017-Nov-19 07:30N 22°35' E 114°17'0 0.0
2017-Nov-19 07:00N 22°35' E 114°17'0 0.0
2017-Nov-19 06:30N 22°35' E 114°17'0 0.0
2017-Nov-19 06:00N 22°35' E 114°17'0 0.0
2017-Nov-19 05:30N 22°35' E 114°17'0 0.0
2017-Nov-19 05:00N 22°35' E 114°17'0 0.0
2017-Nov-19 04:30N 22°35' E 114°17'0 0.0
2017-Nov-19 04:00N 22°35' E 114°17'0 0.0
2017-Nov-19 03:30N 22°35' E 114°17'0 0.0
2017-Nov-19 03:00N 22°35' E 114°17'0 0.0
2017-Nov-19 02:30N 22°35' E 114°17'0 0.0
2017-Nov-19 02:00N 22°35' E 114°17'0 0.0
2017-Nov-19 01:30N 22°35' E 114°17'0 0.0
2017-Nov-19 01:00N 22°35' E 114°17'0 0.0
2017-Nov-19 00:27N 22°35' E 114°17'0 0.0
2017-Nov-19 00:00N 22°35' E 114°17'0 0.0
2017-Nov-18 23:30N 22°35' E 114°17'0 0.0
2017-Nov-18 23:00N 22°35' E 114°17'0 0.0
2017-Nov-18 22:30N 22°35' E 114°17'1 1.2
2017-Nov-18 22:00N 22°34' E 114°17'4 8.8
2017-Nov-18 21:30N 22°33' E 114°22'612.4
2017-Nov-18 21:00N 22°29' E 114°27'5 9.9
2017-Nov-18 20:30N 22°25' E 114°29'510.6
2017-Nov-18 20:00N 22°21' E 114°33'0 0.2
2017-Nov-18 19:30N 22°21' E 114°33'0 0.1
2017-Nov-18 19:00N 22°21' E 114°33'0 0.0
2017-Nov-18 18:30N 22°21' E 114°33'0 0.0
2017-Nov-18 18:00N 22°21' E 114°33'0 0.1
2017-Nov-18 17:27N 22°21' E 114°33'0 0.1
2017-Nov-18 17:00N 22°21' E 114°33'0 0.2
2017-Nov-18 16:30N 22°21' E 114°33'0 0.2
2017-Nov-18 15:57N 22°21' E 114°33'2 4.7
2017-Nov-18 15:30N 22°19' E 114°32'611.8
2017-Nov-18 15:00N 22°14' E 114°29'815.1
2017-Nov-18 14:31N 22°08' E 114°24'714.0
2017-Nov-18 14:00N 22°06' E 114°17'7 8.4
2017-Nov-18 13:07N 22°12' E 114°11'111.6
2017-Nov-18 13:00N 22°13' E 114°10'7 0.4
2017-Nov-17 18:30N 22°18' E 114°06'3 6.9
2017-Nov-17 18:00N 22°15' E 114°07'510.2
2017-Nov-17 17:30N 22°12' E 114°11'5 9.8
2017-Nov-17 17:00N 22°08' E 114°15'3 5.9
2017-Nov-17 16:30N 22°07' E 114°12'510.9
2017-Nov-17 16:00N 22°07' E 114°06'612.2
2017-Nov-17 15:30N 22°07' E 113°59'4 6.6
2017-Nov-17 14:53N 22°06' E 113°55'0 0.0
2017-Nov-17 11:23N 22°06' E 113°55'0 0.1
2017-Nov-17 10:21N 22°06' E 113°55'3 8.2
2017-Nov-17 10:00N 22°06' E 113°52'611.3
2017-Nov-17 09:30N 22°12' E 113°49'816.3
2017-Nov-17 09:00N 22°20' E 113°48'714.6
2017-Nov-17 08:30N 22°26' E 113°45'714.9
2017-Nov-17 08:00N 22°34' E 113°43'510.3
2017-Nov-17 07:30N 22°39' E 113°41'0 0.5
2017-Nov-17 06:55N 22°38' E 113°41'0 0.0
2017-Nov-17 06:25N 22°38' E 113°41'0 0.0
2017-Nov-17 05:46N 22°38' E 113°41'0 0.0
2017-Nov-17 05:22N 22°38' E 113°41'0 0.0
2017-Nov-17 04:58N 22°38' E 113°41'0 0.0
2017-Nov-17 04:19N 22°38' E 113°41'0 0.0
2017-Nov-17 03:49N 22°38' E 113°41'0 0.0
2017-Nov-17 03:19N 22°38' E 113°41'0 0.0
2017-Nov-17 02:22N 22°38' E 113°41'0 0.0
2017-Nov-17 01:55N 22°38' E 113°41'0 0.0
2017-Nov-16 23:01N 22°38' E 113°41'0 0.0
2017-Nov-16 22:34N 22°38' E 113°41'0 0.0
2017-Nov-16 22:25N 22°38' E 113°41'0 0.0
2017-Nov-16 21:58N 22°38' E 113°41'0 0.0
2017-Nov-16 21:28N 22°38' E 113°41'0 0.0
2017-Nov-16 20:55N 22°38' E 113°41'0 0.0
2017-Nov-16 20:25N 22°38' E 113°41'0 0.0
2017-Nov-16 19:10N 22°38' E 113°41'0 0.0
2017-Nov-16 18:13N 22°38' E 113°41'0 0.0
2017-Nov-16 17:58N 22°38' E 113°41'0 0.0
2017-Nov-16 15:27N 22°38' E 113°41'1 1.3
2017-Nov-16 15:00N 22°38' E 113°41'510.2
2017-Nov-16 14:30N 22°33' E 113°43'612.2
2017-Nov-16 14:00N 22°28' E 113°45'815.0
2017-Nov-16 13:29N 22°20' E 113°48'815.8
2017-Nov-16 13:00N 22°13' E 113°49'813.7
2017-Nov-16 12:27N 22°05' E 113°51'613.1
2017-Nov-16 12:01N 21°59' E 113°51'814.7
2017-Nov-16 11:29N 21°52' E 113°50'  
2017-Nov-13 00:15N 01°15' E 104°03'416.5
2017-Nov-12 23:59N 01°14' E 103°59'613.2
2017-Nov-12 23:30N 01°12' E 103°53'4 7.7
2017-Nov-12 23:00N 01°12' E 103°49'4 8.2
2017-Nov-12 22:30N 01°15' E 103°46'2 3.9
2017-Nov-12 21:57N 01°17' E 103°45'0 0.2
2017-Nov-12 21:30N 01°17' E 103°45'0 0.0
2017-Nov-12 21:00N 01°17' E 103°45'0 0.0
2017-Nov-12 20:30N 01°17' E 103°45'0 0.0
2017-Nov-12 19:57N 01°17' E 103°45'0 0.0
2017-Nov-12 19:30N 01°17' E 103°45'0 0.0
2017-Nov-12 18:57N 01°17' E 103°45'0 0.0
2017-Nov-12 18:30N 01°17' E 103°45'0 0.0
2017-Nov-12 17:54N 01°17' E 103°45'0 0.0
2017-Nov-12 17:30N 01°17' E 103°45'0 0.0
2017-Nov-12 17:00N 01°17' E 103°45'0 0.0
2017-Nov-12 16:30N 01°17' E 103°45'0 0.0
2017-Nov-12 15:57N 01°17' E 103°45'0 0.0
2017-Nov-12 15:30N 01°17' E 103°45'0 0.0
2017-Nov-12 15:00N 01°17' E 103°45'0 0.0
2017-Nov-12 14:27N 01°17' E 103°45'0 0.0
2017-Nov-12 13:48N 01°17' E 103°45'0 0.0
2017-Nov-12 13:24N 01°17' E 103°45'0 0.0
2017-Nov-12 13:00N 01°17' E 103°45'0 0.0
2017-Nov-12 12:30N 01°17' E 103°45'0 0.0
2017-Nov-12 12:00N 01°17' E 103°45'0 0.0
2017-Nov-12 11:30N 01°17' E 103°45'0 0.0
2017-Nov-12 10:54N 01°17' E 103°45'0 0.0
2017-Nov-12 10:30N 01°17' E 103°45'0 0.0
2017-Nov-12 10:00N 01°17' E 103°45'0 0.0
2017-Nov-12 09:30N 01°17' E 103°45'0 0.0
2017-Nov-12 08:57N 01°17' E 103°45'0 0.0
2017-Nov-12 08:30N 01°17' E 103°45'0 0.0
2017-Nov-12 07:57N 01°17' E 103°45'0 0.0
2017-Nov-12 07:30N 01°17' E 103°45'0 0.0
2017-Nov-12 06:57N 01°17' E 103°45'0 0.0
2017-Nov-12 06:24N 01°17' E 103°45'0 0.0
2017-Nov-12 06:00N 01°17' E 103°45'0 0.0
2017-Nov-12 05:27N 01°17' E 103°45'0 0.0
2017-Nov-12 04:57N 01°17' E 103°45'0 0.0
2017-Nov-12 04:30N 01°17' E 103°45'0 0.0
2017-Nov-12 03:57N 01°17' E 103°45'0 0.0
2017-Nov-12 03:30N 01°17' E 103°45'0 0.0
2017-Nov-12 02:57N 01°17' E 103°45'0 0.0
2017-Nov-12 02:30N 01°17' E 103°45'0 0.0
2017-Nov-12 02:00N 01°17' E 103°45'0 0.0
2017-Nov-12 01:30N 01°17' E 103°45'0 0.0
2017-Nov-12 01:00N 01°17' E 103°45'0 0.0
2017-Nov-12 00:30N 01°17' E 103°45'0 0.0
2017-Nov-11 23:57N 01°17' E 103°45'0 0.0
2017-Nov-11 23:30N 01°17' E 103°45'0 0.0
2017-Nov-11 22:57N 01°17' E 103°45'0 0.0
2017-Nov-11 22:30N 01°17' E 103°45'0 0.0
2017-Nov-11 21:57N 01°17' E 103°45'0 0.0
2017-Nov-11 21:30N 01°17' E 103°45'0 0.0
2017-Nov-11 21:00N 01°17' E 103°45'0 0.0
2017-Nov-11 20:30N 01°17' E 103°45'0 0.0
2017-Nov-11 20:00N 01°17' E 103°45'0 0.0
2017-Nov-11 19:30N 01°17' E 103°45'0 0.0
2017-Nov-11 19:00N 01°17' E 103°45'0 0.0
2017-Nov-11 18:30N 01°17' E 103°45'0 0.0
2017-Nov-11 18:00N 01°17' E 103°45'0 0.0
2017-Nov-11 17:30N 01°17' E 103°45'0 0.0
2017-Nov-11 17:00N 01°17' E 103°45'0 0.0
2017-Nov-11 16:30N 01°17' E 103°45'0 0.0
2017-Nov-11 16:00N 01°17' E 103°45'0 0.0
2017-Nov-11 15:30N 01°17' E 103°45'0 0.0
2017-Nov-11 15:00N 01°17' E 103°45'0 0.0
2017-Nov-11 14:30N 01°17' E 103°45'0 0.0
2017-Nov-11 14:00N 01°17' E 103°45'0 0.2
2017-Nov-11 13:30N 01°17' E 103°45'1 1.5
2017-Nov-11 13:01N 01°16' E 103°46'1 1.7
2017-Nov-11 12:30N 01°16' E 103°46'1 1.5
2017-Nov-11 12:01N 01°15' E 103°46'4 8.8
2017-Nov-11 11:30N 01°13' E 103°42'5 9.5
2017-Nov-11 11:01N 01°12' E 103°37'4 8.1
2017-Nov-11 10:30N 01°11' E 103°33'5 9.2
2017-Nov-11 10:00N 01°10' E 103°29'612.2
2017-Nov-11 09:30N 01°13' E 103°23'712.7
2017-Nov-11 08:59N 01°17' E 103°18'  

Dump ship's entire track history